createdAt,value
2023-04-14T00:01:56.583Z,1.90
2023-04-14T00:04:23.310Z,1.80
2023-04-14T00:06:51.406Z,1.70
2023-04-14T00:09:17.861Z,1.57
2023-04-14T00:11:44.340Z,1.90
2023-04-14T00:14:10.830Z,1.40
2023-04-14T00:16:39.484Z,1.77
2023-04-14T00:19:06.009Z,1.63
2023-04-14T00:21:32.578Z,1.77
2023-04-14T00:23:59.088Z,1.80
2023-04-14T00:26:25.609Z,1.63
2023-04-14T00:28:52.292Z,1.60
2023-04-14T00:31:18.888Z,1.60
2023-04-14T00:33:45.434Z,2.10
2023-04-14T00:36:11.888Z,1.80
2023-04-14T00:38:38.374Z,1.60
2023-04-14T00:41:04.877Z,1.90
2023-04-14T00:43:31.362Z,1.80
2023-04-14T00:45:58.382Z,1.70
2023-04-14T00:48:24.883Z,1.93
2023-04-14T00:50:51.417Z,1.60
2023-04-14T00:53:17.959Z,1.90
2023-04-14T00:55:44.455Z,1.90
2023-04-14T00:58:11.516Z,1.90
2023-04-14T01:00:38.090Z,1.83
2023-04-14T01:03:05.812Z,1.70
2023-04-14T01:05:32.688Z,1.83
2023-04-14T01:07:59.187Z,1.93
2023-04-14T01:10:30.640Z,2.00
2023-04-14T01:12:57.072Z,2.47
2023-04-14T01:15:29.147Z,2.50
2023-04-14T01:18:12.874Z,1.77
2023-04-14T01:20:42.370Z,1.90
2023-04-14T01:23:11.604Z,1.60
2023-04-14T01:25:44.487Z,2.70
2023-04-14T01:28:21.992Z,2.33
2023-04-14T01:31:02.418Z,2.30
2023-04-14T01:33:30.416Z,2.30
2023-04-14T01:36:00.232Z,1.90
2023-04-14T01:38:32.831Z,1.83
2023-04-14T01:41:07.273Z,1.70
2023-04-14T01:43:35.286Z,2.00
2023-04-14T01:46:07.042Z,1.90
2023-04-14T01:48:33.903Z,1.80
2023-04-14T01:51:02.175Z,1.87
2023-04-14T01:53:30.117Z,1.93
2023-04-14T01:55:57.302Z,1.70
2023-04-14T01:58:25.455Z,2.20
2023-04-14T02:00:52.920Z,1.70
2023-04-14T02:03:21.154Z,1.70
2023-04-14T02:05:48.840Z,1.70
2023-04-14T02:08:16.259Z,1.70
2023-04-14T02:10:43.953Z,1.97
2023-04-14T02:13:11.748Z,1.60
2023-04-14T02:15:40.636Z,1.60
2023-04-14T02:18:07.896Z,1.90
2023-04-14T02:20:38.094Z,1.60
2023-04-14T02:23:04.591Z,1.70
2023-04-14T02:25:33.128Z,1.87
2023-04-14T02:28:05.867Z,1.80
2023-04-14T02:30:33.904Z,2.10
2023-04-14T02:33:03.135Z,2.00
2023-04-14T02:35:31.629Z,1.73
2023-04-14T02:38:05.807Z,1.77
2023-04-14T02:40:35.180Z,1.83
2023-04-14T02:43:04.435Z,1.90
2023-04-14T02:45:33.009Z,2.00
2023-04-14T02:48:03.743Z,1.80
2023-04-14T02:50:32.941Z,1.80
2023-04-14T02:53:12.155Z,1.73
2023-04-14T02:55:38.978Z,1.80
2023-04-14T02:58:05.591Z,2.00
2023-04-14T03:00:37.065Z,2.43
2023-04-14T03:03:04.766Z,2.33
2023-04-14T03:05:32.392Z,2.30
2023-04-14T03:08:09.047Z,2.27
2023-04-14T03:10:37.541Z,2.17
2023-04-14T03:13:04.896Z,2.40
2023-04-14T03:15:31.702Z,2.40
2023-04-14T03:17:58.856Z,2.40
2023-04-14T03:20:26.877Z,2.50
2023-04-14T03:23:01.789Z,2.50
2023-04-14T03:25:31.939Z,2.67
2023-04-14T03:28:01.739Z,2.30
2023-04-14T03:30:32.374Z,2.20
2023-04-14T03:33:02.172Z,2.10
2023-04-14T03:35:29.781Z,2.10
2023-04-14T03:37:59.822Z,2.50
2023-04-14T03:40:30.701Z,2.60
2023-04-14T03:42:58.727Z,2.20
2023-04-14T03:45:26.252Z,2.10
2023-04-14T03:47:57.803Z,1.97
2023-04-14T03:50:31.417Z,2.20
2023-04-14T03:52:59.475Z,2.10
2023-04-14T03:55:27.514Z,2.20
2023-04-14T03:57:58.809Z,2.47
2023-04-14T04:00:27.009Z,2.37
2023-04-14T04:02:54.245Z,2.07
2023-04-14T04:05:22.361Z,2.13
2023-04-14T04:07:52.087Z,1.83
2023-04-14T04:10:19.437Z,1.90
2023-04-14T04:12:47.272Z,2.13
2023-04-14T04:15:14.329Z,1.93
2023-04-14T04:17:42.678Z,2.03
2023-04-14T04:20:14.153Z,1.70
2023-04-14T04:22:44.396Z,1.60
2023-04-14T04:25:11.703Z,1.83
2023-04-14T04:27:43.832Z,2.10
2023-04-14T04:30:14.835Z,2.00
2023-04-14T04:32:41.578Z,2.30
2023-04-14T04:35:10.509Z,2.10
2023-04-14T04:37:37.685Z,1.63
2023-04-14T04:40:04.472Z,2.00
2023-04-14T04:42:31.671Z,1.73
2023-04-14T04:44:58.219Z,2.03
2023-04-14T04:47:24.913Z,1.80
2023-04-14T04:49:51.493Z,1.80
2023-04-14T04:52:17.975Z,1.70
2023-04-14T04:54:45.450Z,1.47
2023-04-14T04:57:12.314Z,1.53
2023-04-14T04:59:38.903Z,2.03
2023-04-14T05:02:05.444Z,2.40
2023-04-14T05:04:32.075Z,2.10
2023-04-14T05:06:58.530Z,2.07
2023-04-14T05:09:25.007Z,2.10
2023-04-14T05:11:51.475Z,1.87
2023-04-14T05:14:17.972Z,2.93
2023-04-14T05:16:44.414Z,2.30
2023-04-14T05:19:10.864Z,1.87
2023-04-14T05:21:37.363Z,1.80
2023-04-14T05:24:03.919Z,1.90
2023-04-14T05:26:51.932Z,2.30
2023-04-14T05:29:18.050Z,2.40
2023-04-14T05:31:44.693Z,2.70
2023-04-14T05:34:11.390Z,2.33
2023-04-14T05:36:37.856Z,2.63
2023-04-14T05:39:04.379Z,2.67
2023-04-14T05:41:31.031Z,2.30
2023-04-14T05:43:57.491Z,2.50
2023-04-14T05:46:24.001Z,2.47
2023-04-14T05:48:50.513Z,2.20
2023-04-14T05:51:16.984Z,2.40
2023-04-14T05:53:43.453Z,2.93
2023-04-14T05:56:11.643Z,2.87
2023-04-14T05:58:38.149Z,3.20
2023-04-14T06:01:05.157Z,3.23
2023-04-14T06:03:31.925Z,3.10
2023-04-14T06:05:58.554Z,2.87
2023-04-14T06:08:25.556Z,3.03
2023-04-14T06:10:52.046Z,2.17
2023-04-14T06:13:22.812Z,2.87
2023-04-14T06:15:50.676Z,2.60
2023-04-14T06:18:17.247Z,2.47
2023-04-14T06:20:43.772Z,2.57
2023-04-14T06:23:10.317Z,2.47
2023-04-14T06:25:36.950Z,2.47
2023-04-14T06:28:03.639Z,2.30
2023-04-14T06:30:32.305Z,2.60
2023-04-14T06:32:59.342Z,2.87
2023-04-14T06:35:32.387Z,3.20
2023-04-14T06:38:00.414Z,2.83
2023-04-14T06:40:27.211Z,3.50
2023-04-14T06:42:53.671Z,3.13
2023-04-14T06:45:20.437Z,2.93
2023-04-14T06:47:47.253Z,2.57
2023-04-14T06:50:14.484Z,2.83
2023-04-14T06:52:40.966Z,2.73
2023-04-14T06:55:07.999Z,2.70
2023-04-14T06:57:34.471Z,2.17
2023-04-14T07:00:01.068Z,2.43
2023-04-14T07:02:28.811Z,2.40
2023-04-14T07:04:55.587Z,3.10
2023-04-14T07:07:22.316Z,2.43
2023-04-14T07:09:48.906Z,2.43
2023-04-14T07:12:16.641Z,2.00
2023-04-14T07:14:43.210Z,2.20
2023-04-14T07:17:09.730Z,2.00
2023-04-14T07:19:36.259Z,2.10
2023-04-14T07:22:02.748Z,2.20
2023-04-14T07:24:29.217Z,2.60
2023-04-14T07:26:56.048Z,2.07
2023-04-14T07:29:22.539Z,3.10
2023-04-14T07:31:49.080Z,2.20
2023-04-14T07:34:15.575Z,2.50
2023-04-14T07:36:42.438Z,2.40
2023-04-14T07:39:08.969Z,2.00
2023-04-14T07:41:35.462Z,2.17
2023-04-14T07:44:02.344Z,1.97
2023-04-14T07:46:29.164Z,2.17
2023-04-14T07:48:55.701Z,2.47
2023-04-14T07:51:22.253Z,2.50
2023-04-14T07:53:48.858Z,2.17
2023-04-14T07:56:15.582Z,1.90
2023-04-14T07:58:42.031Z,2.03
2023-04-14T08:01:08.510Z,1.90
2023-04-14T08:03:37.495Z,1.83
2023-04-14T08:06:05.335Z,1.70
2023-04-14T08:08:32.047Z,1.60
2023-04-14T08:10:58.535Z,1.63
2023-04-14T08:13:24.992Z,1.53
2023-04-14T08:15:51.621Z,1.80
2023-04-14T08:18:18.542Z,1.85
2023-04-14T08:20:45.028Z,1.70
2023-04-14T08:23:12.124Z,1.70
2023-04-14T08:25:38.658Z,2.00
2023-04-14T08:28:05.076Z,1.90
2023-04-14T08:30:31.747Z,1.80
2023-04-14T08:32:59.020Z,1.70
2023-04-14T08:35:39.629Z,1.73
2023-04-14T08:38:07.911Z,1.50
2023-04-14T08:40:38.433Z,3.03
2023-04-14T08:43:05.633Z,1.98
2023-04-14T08:45:32.794Z,1.70
2023-04-14T08:47:59.620Z,2.08
2023-04-14T08:50:27.022Z,2.25
2023-04-14T08:52:55.645Z,1.67
2023-04-14T08:55:22.867Z,1.65
2023-04-14T08:57:50.202Z,1.20
2023-04-14T09:00:18.351Z,1.70
2023-04-14T09:02:45.967Z,1.60
2023-04-14T09:05:12.848Z,1.67
2023-04-14T09:07:39.397Z,1.83
2023-04-14T09:10:06.550Z,1.60
2023-04-14T09:12:33.779Z,1.48
2023-04-14T09:15:01.315Z,1.55
2023-04-14T09:17:28.398Z,1.70
2023-04-14T09:20:34.613Z,2.05
2023-04-14T09:22:41.616Z,1.80
2023-04-14T09:25:08.920Z,1.77
2023-04-14T09:27:35.472Z,1.70
2023-04-14T09:30:02.477Z,1.60
2023-04-14T09:32:29.222Z,1.60
2023-04-14T09:34:57.817Z,1.52
2023-04-14T09:37:25.703Z,1.23
2023-04-14T09:39:52.854Z,1.70
2023-04-14T09:42:19.482Z,1.40
2023-04-14T09:44:56.197Z,1.52
2023-04-14T09:47:23.982Z,1.50
2023-04-14T09:50:00.124Z,1.55
2023-04-14T09:52:40.292Z,1.60
2023-04-14T09:55:08.374Z,1.45
2023-04-14T09:57:35.923Z,1.33
2023-04-14T10:00:02.463Z,1.23
2023-04-14T10:02:29.292Z,1.60
2023-04-14T10:05:06.404Z,1.30
2023-04-14T10:07:33.865Z,1.63
2023-04-14T10:10:05.624Z,1.40
2023-04-14T10:12:32.657Z,1.30
2023-04-14T10:15:00.162Z,1.55
2023-04-14T10:17:29.445Z,1.40
2023-04-14T10:19:56.760Z,1.33
2023-04-14T10:22:23.393Z,1.33
2023-04-14T10:24:50.439Z,1.20
2023-04-14T10:27:16.990Z,1.27
2023-04-14T10:29:44.545Z,1.17
2023-04-14T10:32:13.593Z,1.10
2023-04-14T10:34:42.615Z,1.25
2023-04-14T10:37:13.159Z,1.40
2023-04-14T10:39:40.107Z,1.48
2023-04-14T10:42:06.648Z,1.00
2023-04-14T10:44:35.137Z,1.30
2023-04-14T10:47:07.712Z,1.38
2023-04-14T10:49:35.542Z,1.10
2023-04-14T10:52:03.758Z,1.10
2023-04-14T10:54:49.988Z,1.02
2023-04-14T10:57:17.765Z,1.13
2023-04-14T10:59:46.251Z,1.13
2023-04-14T11:02:32.324Z,1.13
2023-04-14T11:05:05.660Z,1.10
2023-04-14T11:07:36.989Z,1.15
2023-04-14T11:10:22.013Z,1.30
2023-04-14T11:12:49.479Z,1.10
2023-04-14T11:15:18.755Z,1.17
2023-04-14T11:17:45.706Z,1.50
2023-04-14T11:20:19.178Z,1.20
2023-04-14T11:22:46.971Z,0.90
2023-04-14T11:25:14.361Z,1.50
2023-04-14T11:27:41.241Z,1.23
2023-04-14T11:30:09.238Z,1.02
2023-04-14T11:32:47.779Z,1.13
2023-04-14T11:35:14.865Z,1.40
2023-04-14T11:37:41.381Z,1.60
2023-04-14T11:40:09.553Z,1.30
2023-04-14T11:42:36.223Z,1.20
2023-04-14T11:45:03.761Z,1.48
2023-04-14T11:47:30.815Z,1.65
2023-04-14T11:50:00.944Z,1.42
2023-04-14T11:52:27.479Z,1.42
2023-04-14T11:54:53.950Z,1.27
2023-04-14T11:57:20.550Z,1.55
2023-04-14T11:59:47.503Z,1.48
2023-04-14T12:02:20.400Z,1.33
2023-04-14T12:04:48.554Z,1.63
2023-04-14T12:07:17.711Z,1.50
2023-04-14T12:09:48.953Z,1.33
2023-04-14T12:12:17.208Z,1.40
2023-04-14T12:14:44.626Z,1.50
2023-04-14T12:17:11.474Z,1.33
2023-04-14T12:19:38.642Z,1.02
2023-04-14T12:22:05.528Z,1.20
2023-04-14T12:24:44.857Z,1.30
2023-04-14T12:27:11.522Z,1.42
2023-04-14T12:29:38.161Z,1.13
2023-04-14T12:32:10.830Z,1.50
2023-04-14T12:34:37.330Z,1.10
2023-04-14T12:37:10.128Z,1.40
2023-04-14T12:39:58.290Z,1.13
2023-04-14T12:42:25.419Z,1.00
2023-04-14T12:44:55.360Z,1.35
2023-04-14T12:47:29.025Z,1.30
2023-04-14T12:49:56.892Z,1.13
2023-04-14T12:52:33.454Z,1.00
2023-04-14T12:55:00.048Z,1.30
2023-04-14T12:57:27.271Z,1.38
2023-04-14T12:59:53.812Z,1.23
2023-04-14T13:02:20.521Z,1.48
2023-04-14T13:04:47.164Z,1.30
2023-04-14T13:07:13.622Z,1.10
2023-04-14T13:09:40.071Z,1.63
2023-04-14T13:12:06.729Z,1.02
2023-04-14T13:14:33.296Z,1.10
2023-04-14T13:16:59.809Z,1.10
2023-04-14T13:19:26.324Z,1.33
2023-04-14T13:21:52.805Z,1.77
2023-04-14T13:24:19.361Z,1.75
2023-04-14T13:26:46.219Z,2.72
2023-04-14T13:29:15.444Z,3.28
2023-04-14T13:31:42.023Z,2.13
2023-04-14T13:34:08.821Z,1.20
2023-04-14T13:36:35.400Z,1.08
2023-04-14T13:39:02.904Z,1.02
2023-04-14T13:41:30.677Z,1.00
2023-04-14T13:43:58.056Z,1.10
2023-04-14T13:46:25.461Z,1.10
2023-04-14T13:48:52.879Z,1.02
2023-04-14T13:51:20.230Z,1.27
2023-04-14T13:53:48.098Z,1.00
2023-04-14T13:56:16.687Z,1.30
2023-04-14T13:58:44.133Z,1.20
2023-04-14T14:01:12.086Z,1.13
2023-04-14T14:03:40.227Z,0.95
2023-04-14T14:06:07.890Z,1.23
2023-04-14T14:08:38.122Z,1.05
2023-04-14T14:11:08.110Z,1.30
2023-04-14T14:13:35.063Z,0.90
2023-04-14T14:16:02.388Z,1.08
2023-04-14T14:18:29.173Z,1.20
2023-04-14T14:20:55.691Z,1.00
2023-04-14T14:23:22.274Z,0.88
2023-04-14T14:25:48.724Z,1.00
2023-04-14T14:28:15.219Z,1.10
2023-04-14T14:30:42.363Z,0.90
2023-04-14T14:33:09.147Z,1.17
2023-04-14T14:35:35.830Z,1.30
2023-04-14T14:38:02.369Z,0.93
2023-04-14T14:40:29.008Z,1.00
2023-04-14T14:42:55.626Z,0.88
2023-04-14T14:45:30.376Z,1.00
2023-04-14T14:47:57.741Z,0.95
2023-04-14T14:50:24.267Z,1.20
2023-04-14T14:52:50.734Z,1.10
2023-04-14T14:55:17.309Z,1.70
2023-04-14T14:57:43.811Z,1.67
2023-04-14T15:00:11.132Z,1.10
2023-04-14T15:02:38.617Z,1.02
2023-04-14T15:05:05.831Z,1.50
2023-04-14T15:07:32.582Z,1.30
2023-04-14T15:09:59.198Z,0.80
2023-04-14T15:12:25.773Z,0.93
2023-04-14T15:14:52.346Z,0.90
2023-04-14T15:17:19.118Z,1.00
2023-04-14T15:19:46.164Z,1.02
2023-04-14T15:22:12.838Z,1.10
2023-04-14T15:24:39.372Z,1.30
2023-04-14T15:27:06.125Z,1.83
2023-04-14T15:29:32.659Z,1.38
2023-04-14T15:32:00.125Z,1.20
2023-04-14T15:34:27.310Z,0.90
2023-04-14T15:36:53.826Z,0.93
2023-04-14T15:39:20.300Z,1.00
2023-04-14T15:41:49.048Z,1.20
2023-04-14T15:44:15.531Z,1.00
2023-04-14T15:46:42.009Z,1.08
2023-04-14T15:49:08.488Z,1.58
2023-04-14T15:51:35.033Z,1.27
2023-04-14T15:54:02.086Z,1.08
2023-04-14T15:56:28.766Z,0.80
2023-04-14T15:58:55.490Z,0.95
2023-04-14T16:01:22.154Z,1.00
2023-04-14T16:03:51.267Z,1.17
2023-04-14T16:06:18.963Z,1.20
2023-04-14T16:08:45.467Z,0.93
2023-04-14T16:11:16.247Z,1.40
2023-04-14T16:13:44.090Z,1.50
2023-04-14T16:16:12.808Z,1.00
2023-04-14T16:18:39.336Z,1.48
2023-04-14T16:21:06.003Z,2.42
2023-04-14T16:23:32.505Z,1.00
2023-04-14T16:25:58.966Z,2.83
2023-04-14T16:28:25.828Z,3.75
2023-04-14T16:30:52.358Z,2.10
2023-04-14T16:33:19.156Z,2.20
2023-04-14T16:35:45.621Z,6.50
2023-04-14T16:38:12.245Z,2.67
2023-04-14T16:40:38.975Z,1.48
2023-04-14T16:43:05.455Z,1.13
2023-04-14T16:45:32.181Z,1.67
2023-04-14T16:47:58.763Z,1.50
2023-04-14T16:50:25.358Z,1.75
2023-04-14T16:52:52.445Z,1.10
2023-04-14T16:55:18.958Z,1.52
2023-04-14T16:57:45.667Z,1.60
2023-04-14T17:00:13.777Z,1.40
2023-04-14T17:02:41.211Z,1.20
2023-04-14T17:05:10.216Z,1.20
2023-04-14T17:07:37.083Z,1.30
2023-04-14T17:10:03.653Z,1.70
2023-04-14T17:12:30.172Z,1.65
2023-04-14T17:14:56.924Z,1.08
2023-04-14T17:17:23.422Z,1.20
2023-04-14T17:19:50.111Z,1.60
2023-04-14T17:22:16.708Z,4.75
2023-04-14T17:24:44.071Z,2.50
2023-04-14T17:27:10.955Z,1.40
2023-04-14T17:29:37.441Z,0.90
2023-04-14T17:32:04.027Z,0.90
2023-04-14T17:34:30.713Z,0.90
2023-04-14T17:36:57.368Z,1.15
2023-04-14T17:39:26.909Z,1.20
2023-04-14T17:41:54.364Z,3.17
2023-04-14T17:44:22.155Z,1.00
2023-04-14T17:46:48.837Z,0.88
2023-04-14T17:49:16.521Z,1.20
2023-04-14T17:51:43.698Z,0.90
2023-04-14T17:54:10.354Z,0.70
2023-04-14T17:56:36.952Z,0.88
2023-04-14T17:59:03.480Z,1.00
2023-04-14T18:01:30.166Z,0.90
2023-04-14T18:03:59.582Z,0.70
2023-04-14T18:06:26.253Z,1.05
2023-04-14T18:08:52.968Z,1.00
2023-04-14T18:11:20.509Z,1.20
2023-04-14T18:13:47.010Z,1.08
2023-04-14T18:16:13.539Z,1.02
2023-04-14T18:18:40.015Z,0.93
2023-04-14T18:21:07.978Z,1.05
2023-04-14T18:23:34.433Z,0.95
2023-04-14T18:28:31.542Z,0.90
2023-04-14T18:31:01.733Z,0.77
2023-04-14T18:33:29.376Z,0.90
2023-04-14T18:36:00.685Z,0.88
2023-04-14T18:38:28.582Z,1.00
2023-04-14T18:41:00.659Z,0.93
2023-04-14T18:43:27.362Z,1.23
2023-04-14T18:45:53.924Z,1.10
2023-04-14T18:48:20.424Z,0.97
2023-04-14T18:50:47.673Z,1.00
2023-04-14T18:53:14.745Z,1.00
2023-04-14T18:55:45.788Z,0.90
2023-04-14T18:58:12.987Z,1.10
2023-04-14T19:00:39.830Z,0.90
2023-04-14T19:03:09.010Z,1.17
2023-04-14T19:05:37.023Z,1.20
2023-04-14T19:08:04.082Z,1.13
2023-04-14T19:10:30.814Z,0.93
2023-04-14T19:12:57.444Z,1.13
2023-04-14T19:15:26.058Z,1.00
2023-04-14T19:17:52.834Z,0.93
2023-04-14T19:20:19.533Z,1.10
2023-04-14T19:22:46.306Z,0.90
2023-04-14T19:25:13.200Z,1.00
2023-04-14T19:27:41.686Z,1.07
2023-04-14T19:30:09.940Z,1.13
2023-04-14T19:32:36.865Z,1.00
2023-04-14T19:35:03.589Z,1.13
2023-04-14T19:37:30.112Z,1.20
2023-04-14T19:39:57.278Z,1.00
2023-04-14T19:42:23.794Z,1.37
2023-04-14T19:44:50.261Z,1.30
2023-04-14T19:47:17.560Z,1.03
2023-04-14T19:49:44.108Z,1.10
2023-04-14T19:52:10.692Z,0.90
2023-04-14T19:54:37.940Z,1.00
2023-04-14T19:57:04.449Z,1.20
2023-04-14T19:59:31.602Z,1.10
2023-04-14T20:01:59.607Z,1.03
2023-04-14T20:04:27.204Z,1.07
2023-04-14T20:06:55.208Z,1.20
2023-04-14T20:09:21.748Z,1.30
2023-04-14T20:11:48.246Z,1.20
2023-04-14T20:14:16.175Z,0.93
2023-04-14T20:16:43.015Z,1.00
2023-04-14T20:19:09.893Z,1.20
2023-04-14T20:21:36.465Z,1.10
2023-04-14T20:24:03.855Z,1.00
2023-04-14T20:26:30.492Z,1.20
2023-04-14T20:28:57.190Z,1.30
2023-04-14T20:31:24.417Z,1.30
2023-04-14T20:33:51.060Z,1.00
2023-04-14T20:36:17.585Z,1.00
2023-04-14T20:38:44.084Z,1.10
2023-04-14T20:41:10.550Z,1.00
2023-04-14T20:43:37.096Z,0.90
2023-04-14T20:46:04.275Z,1.13
2023-04-14T20:48:32.168Z,1.47
2023-04-14T20:50:59.822Z,1.60
2023-04-14T20:53:28.507Z,1.70
2023-04-14T20:55:55.075Z,2.00
2023-04-14T20:58:21.611Z,2.70
2023-04-14T21:00:48.106Z,1.90
2023-04-14T21:03:14.665Z,1.50
2023-04-14T21:05:41.385Z,1.80
2023-04-14T21:08:08.440Z,1.90
2023-04-14T21:10:35.649Z,1.23
2023-04-14T21:15:29.272Z,1.20
2023-04-14T21:16:09.300Z,0.97
2023-04-14T21:18:36.362Z,1.23
2023-04-14T21:21:04.888Z,1.37
2023-04-14T21:23:31.632Z,1.27
2023-04-14T21:25:59.900Z,1.10
2023-04-14T21:28:27.114Z,0.90
2023-04-14T21:31:00.407Z,1.00
2023-04-14T21:33:27.528Z,1.10
2023-04-14T21:35:55.341Z,1.20
2023-04-14T21:38:22.663Z,1.30
2023-04-14T21:40:49.347Z,1.00
2023-04-14T21:43:16.135Z,0.97
2023-04-14T21:45:43.037Z,0.97
2023-04-14T21:48:09.678Z,1.00
2023-04-14T21:50:37.240Z,1.00
2023-04-14T21:53:04.311Z,1.07
2023-04-14T21:55:30.902Z,1.00
2023-04-14T21:57:57.858Z,0.90
2023-04-14T22:00:26.443Z,1.10
2023-04-14T22:02:54.707Z,1.00
2023-04-14T22:05:21.626Z,0.87
2023-04-14T22:07:48.648Z,1.17
2023-04-14T22:10:16.892Z,1.07
2023-04-14T22:12:45.211Z,0.80
2023-04-14T22:15:11.839Z,1.00
2023-04-14T22:17:41.753Z,1.17
2023-04-14T22:20:09.599Z,1.10
2023-04-14T22:22:36.300Z,0.87
2023-04-14T22:25:04.276Z,1.00
2023-04-14T22:27:33.484Z,0.90
2023-04-14T22:30:00.605Z,1.00
2023-04-14T22:32:27.319Z,1.10
2023-04-14T22:34:54.154Z,1.10
2023-04-14T22:37:21.003Z,1.07
2023-04-14T22:39:47.462Z,1.20
2023-04-14T22:42:14.007Z,1.10
2023-04-14T22:44:41.190Z,1.20
2023-04-14T22:47:07.742Z,0.90
2023-04-14T22:49:34.209Z,1.00
2023-04-14T22:52:00.893Z,1.10
2023-04-14T22:54:27.364Z,1.00
2023-04-14T22:56:53.860Z,0.97
2023-04-14T22:59:20.360Z,1.03
2023-04-14T23:01:47.884Z,1.00
2023-04-14T23:04:14.759Z,0.97
2023-04-14T23:06:41.346Z,0.97
2023-04-14T23:09:07.785Z,1.17
2023-04-14T23:11:34.500Z,1.00
2023-04-14T23:14:01.002Z,0.97
2023-04-14T23:16:27.550Z,1.00
2023-04-14T23:18:54.058Z,1.20
2023-04-14T23:21:22.318Z,0.90
2023-04-14T23:23:49.434Z,1.17
2023-04-14T23:26:16.147Z,1.30
2023-04-14T23:28:42.649Z,1.30
2023-04-14T23:31:09.261Z,1.27
2023-04-14T23:33:35.740Z,1.00
2023-04-14T23:36:02.232Z,1.00
2023-04-14T23:38:29.127Z,0.90
2023-04-14T23:40:58.862Z,1.30
2023-04-14T23:43:25.722Z,0.83
2023-04-14T23:45:52.592Z,1.10
2023-04-14T23:48:19.129Z,1.17
2023-04-14T23:50:59.273Z,1.10
2023-04-14T23:53:27.539Z,0.80
2023-04-14T23:55:54.080Z,1.10
2023-04-14T23:58:26.533Z,1.00
